sensor_id;sensor_type;location;lat;lon;timestamp;P1;durP1;ratioP1;P2;durP2;ratioP2
27580;SDS011;63557;52.302;7.964;2022-12-18T00:00:23;116.57;;;43.95;;
27580;SDS011;63557;52.302;7.964;2022-12-18T00:05:23;117.43;;;46.17;;
27580;SDS011;63557;52.302;7.964;2022-12-18T00:10:24;144.77;;;52.33;;
27580;SDS011;63557;52.302;7.964;2022-12-18T00:15:24;127.32;;;49.38;;
27580;SDS011;63557;52.302;7.964;2022-12-18T00:20:25;127.00;;;46.20;;
27580;SDS011;63557;52.302;7.964;2022-12-18T00:25:25;112.45;;;47.08;;
27580;SDS011;63557;52.302;7.964;2022-12-18T00:30:26;126.63;;;47.75;;
27580;SDS011;63557;52.302;7.964;2022-12-18T00:35:26;114.90;;;47.70;;
27580;SDS011;63557;52.302;7.964;2022-12-18T00:40:26;112.10;;;46.25;;
27580;SDS011;63557;52.302;7.964;2022-12-18T00:45:29;105.60;;;44.30;;
27580;SDS011;63557;52.302;7.964;2022-12-18T00:50:29;110.07;;;45.78;;
27580;SDS011;63557;52.302;7.964;2022-12-18T00:55:30;103.20;;;43.72;;
27580;SDS011;63557;52.302;7.964;2022-12-18T01:00:30;111.70;;;43.65;;
27580;SDS011;63557;52.302;7.964;2022-12-18T01:05:31;110.00;;;44.03;;
27580;SDS011;63557;52.302;7.964;2022-12-18T01:10:31;103.93;;;42.42;;
27580;SDS011;63557;52.302;7.964;2022-12-18T01:15:32;102.70;;;42.25;;
27580;SDS011;63557;52.302;7.964;2022-12-18T01:20:32;97.25;;;40.20;;
27580;SDS011;63557;52.302;7.964;2022-12-18T01:25:32;107.55;;;44.50;;
27580;SDS011;63557;52.302;7.964;2022-12-18T01:30:33;112.32;;;42.42;;
27580;SDS011;63557;52.302;7.964;2022-12-18T01:35:40;105.57;;;42.63;;
27580;SDS011;63557;52.302;7.964;2022-12-18T01:40:41;104.50;;;41.55;;
27580;SDS011;63557;52.302;7.964;2022-12-18T01:45:42;102.30;;;41.88;;
27580;SDS011;63557;52.302;7.964;2022-12-18T01:50:42;97.80;;;39.97;;
27580;SDS011;63557;52.302;7.964;2022-12-18T01:55:45;99.18;;;39.85;;
27580;SDS011;63557;52.302;7.964;2022-12-18T02:00:46;105.75;;;41.45;;
27580;SDS011;63557;52.302;7.964;2022-12-18T02:05:49;102.78;;;40.20;;
27580;SDS011;63557;52.302;7.964;2022-12-18T02:11:11;88.05;;;38.65;;
27580;SDS011;63557;52.302;7.964;2022-12-18T02:21:51;88.57;;;38.55;;
27580;SDS011;63557;52.302;7.964;2022-12-18T02:27:28;88.63;;;38.90;;
27580;SDS011;63557;52.302;7.964;2022-12-18T02:32:26;94.72;;;38.05;;
27580;SDS011;63557;52.302;7.964;2022-12-18T02:37:27;86.30;;;36.67;;
27580;SDS011;63557;52.302;7.964;2022-12-18T02:42:28;88.88;;;38.47;;
27580;SDS011;63557;52.302;7.964;2022-12-18T02:47:31;81.38;;;36.78;;
27580;SDS011;63557;52.302;7.964;2022-12-18T02:52:45;76.38;;;35.13;;
27580;SDS011;63557;52.302;7.964;2022-12-18T03:03:25;80.97;;;37.38;;
27580;SDS011;63557;52.302;7.964;2022-12-18T03:08:28;94.43;;;40.28;;
27580;SDS011;63557;52.302;7.964;2022-12-18T03:13:33;82.68;;;36.75;;
27580;SDS011;63557;52.302;7.964;2022-12-18T03:24:15;80.82;;;32.22;;
27580;SDS011;63557;52.302;7.964;2022-12-18T03:29:18;79.05;;;32.40;;
27580;SDS011;63557;52.302;7.964;2022-12-18T03:34:24;69.03;;;31.83;;
27580;SDS011;63557;52.302;7.964;2022-12-18T03:39:27;67.18;;;30.23;;
27580;SDS011;63557;52.302;7.964;2022-12-18T03:54:58;68.63;;;30.73;;
27580;SDS011;63557;52.302;7.964;2022-12-18T04:00:01;61.90;;;28.45;;
27580;SDS011;63557;52.302;7.964;2022-12-18T04:05:14;73.00;;;31.02;;
27580;SDS011;63557;52.302;7.964;2022-12-18T04:10:17;62.67;;;28.30;;
27580;SDS011;63557;52.302;7.964;2022-12-18T04:15:19;62.25;;;29.27;;
27580;SDS011;63557;52.302;7.964;2022-12-18T04:20:19;58.45;;;28.20;;
27580;SDS011;63557;52.302;7.964;2022-12-18T04:25:20;59.15;;;26.40;;
27580;SDS011;63557;52.302;7.964;2022-12-18T04:30:32;70.00;;;27.25;;
27580;SDS011;63557;52.302;7.964;2022-12-18T04:35:33;61.33;;;27.08;;
27580;SDS011;63557;52.302;7.964;2022-12-18T04:40:34;71.22;;;27.80;;
27580;SDS011;63557;52.302;7.964;2022-12-18T04:45:38;68.38;;;27.40;;
27580;SDS011;63557;52.302;7.964;2022-12-18T04:50:39;56.80;;;26.27;;
27580;SDS011;63557;52.302;7.964;2022-12-18T04:55:39;57.10;;;25.20;;
27580;SDS011;63557;52.302;7.964;2022-12-18T05:00:39;59.50;;;27.30;;
27580;SDS011;63557;52.302;7.964;2022-12-18T05:05:40;69.43;;;26.13;;
27580;SDS011;63557;52.302;7.964;2022-12-18T05:10:40;55.38;;;24.77;;
27580;SDS011;63557;52.302;7.964;2022-12-18T05:15:40;54.75;;;25.30;;
27580;SDS011;63557;52.302;7.964;2022-12-18T05:20:41;52.17;;;24.17;;
27580;SDS011;63557;52.302;7.964;2022-12-18T05:25:42;54.35;;;23.83;;
27580;SDS011;63557;52.302;7.964;2022-12-18T05:30:42;66.15;;;26.10;;
27580;SDS011;63557;52.302;7.964;2022-12-18T05:35:43;54.30;;;24.45;;
27580;SDS011;63557;52.302;7.964;2022-12-18T05:40:43;56.05;;;25.08;;
27580;SDS011;63557;52.302;7.964;2022-12-18T05:45:44;42.72;;;22.70;;
27580;SDS011;63557;52.302;7.964;2022-12-18T05:50:45;50.67;;;22.27;;
27580;SDS011;63557;52.302;7.964;2022-12-18T05:55:46;53.03;;;22.60;;
27580;SDS011;63557;52.302;7.964;2022-12-18T06:00:47;53.45;;;22.17;;
27580;SDS011;63557;52.302;7.964;2022-12-18T06:05:47;51.70;;;22.40;;
27580;SDS011;63557;52.302;7.964;2022-12-18T06:10:51;58.83;;;22.80;;
27580;SDS011;63557;52.302;7.964;2022-12-18T06:15:52;54.15;;;22.23;;
27580;SDS011;63557;52.302;7.964;2022-12-18T06:20:56;51.13;;;22.10;;
27580;SDS011;63557;52.302;7.964;2022-12-18T06:25:57;53.92;;;22.45;;
27580;SDS011;63557;52.302;7.964;2022-12-18T06:30:57;51.03;;;23.35;;
27580;SDS011;63557;52.302;7.964;2022-12-18T06:36:16;50.30;;;23.90;;
27580;SDS011;63557;52.302;7.964;2022-12-18T06:41:18;55.80;;;23.70;;
27580;SDS011;63557;52.302;7.964;2022-12-18T06:46:18;50.05;;;22.52;;
27580;SDS011;63557;52.302;7.964;2022-12-18T06:51:20;56.33;;;23.30;;
27580;SDS011;63557;52.302;7.964;2022-12-18T06:56:20;46.35;;;22.02;;
27580;SDS011;63557;52.302;7.964;2022-12-18T07:01:21;54.17;;;22.30;;
27580;SDS011;63557;52.302;7.964;2022-12-18T07:06:22;52.83;;;22.58;;
27580;SDS011;63557;52.302;7.964;2022-12-18T07:11:23;56.03;;;22.38;;
27580;SDS011;63557;52.302;7.964;2022-12-18T07:16:24;56.75;;;23.63;;
27580;SDS011;63557;52.302;7.964;2022-12-18T07:21:25;54.90;;;23.38;;
27580;SDS011;63557;52.302;7.964;2022-12-18T07:26:25;59.75;;;24.27;;
27580;SDS011;63557;52.302;7.964;2022-12-18T07:31:26;51.25;;;22.73;;
27580;SDS011;63557;52.302;7.964;2022-12-18T07:36:26;59.22;;;27.08;;
27580;SDS011;63557;52.302;7.964;2022-12-18T07:41:27;60.28;;;27.00;;
27580;SDS011;63557;52.302;7.964;2022-12-18T07:46:27;58.63;;;27.48;;
27580;SDS011;63557;52.302;7.964;2022-12-18T07:51:27;63.65;;;24.98;;
27580;SDS011;63557;52.302;7.964;2022-12-18T07:56:28;58.70;;;25.77;;
27580;SDS011;63557;52.302;7.964;2022-12-18T08:01:28;52.20;;;22.58;;
27580;SDS011;63557;52.302;7.964;2022-12-18T08:06:29;59.83;;;24.55;;
27580;SDS011;63557;52.302;7.964;2022-12-18T08:11:29;57.25;;;24.15;;
27580;SDS011;63557;52.302;7.964;2022-12-18T08:16:29;56.50;;;23.52;;
27580;SDS011;63557;52.302;7.964;2022-12-18T08:21:30;63.38;;;25.52;;
27580;SDS011;63557;52.302;7.964;2022-12-18T08:26:31;58.08;;;24.27;;
27580;SDS011;63557;52.302;7.964;2022-12-18T08:31:31;54.33;;;21.95;;
27580;SDS011;63557;52.302;7.964;2022-12-18T08:36:32;54.40;;;24.70;;
27580;SDS011;63557;52.302;7.964;2022-12-18T08:41:33;64.40;;;27.05;;
27580;SDS011;63557;52.302;7.964;2022-12-18T08:46:35;57.70;;;24.10;;
27580;SDS011;63557;52.302;7.964;2022-12-18T08:51:35;61.47;;;25.38;;
27580;SDS011;63557;52.302;7.964;2022-12-18T08:56:36;57.67;;;26.25;;
27580;SDS011;63557;52.302;7.964;2022-12-18T09:01:36;53.97;;;24.38;;
27580;SDS011;63557;52.302;7.964;2022-12-18T09:06:37;51.85;;;24.20;;
27580;SDS011;63557;52.302;7.964;2022-12-18T09:11:37;55.95;;;23.60;;
27580;SDS011;63557;52.302;7.964;2022-12-18T09:16:38;50.78;;;24.70;;
27580;SDS011;63557;52.302;7.964;2022-12-18T09:21:38;54.33;;;24.25;;
27580;SDS011;63557;52.302;7.964;2022-12-18T09:26:39;56.83;;;23.35;;
27580;SDS011;63557;52.302;7.964;2022-12-18T09:31:39;57.63;;;25.02;;
27580;SDS011;63557;52.302;7.964;2022-12-18T09:36:40;55.17;;;23.38;;
27580;SDS011;63557;52.302;7.964;2022-12-18T09:46:48;43.92;;;21.90;;
27580;SDS011;63557;52.302;7.964;2022-12-18T09:51:52;42.88;;;21.95;;
27580;SDS011;63557;52.302;7.964;2022-12-18T09:56:54;43.67;;;21.37;;
27580;SDS011;63557;52.302;7.964;2022-12-18T10:01:55;49.53;;;26.83;;
27580;SDS011;63557;52.302;7.964;2022-12-18T10:07:08;39.28;;;20.20;;
27580;SDS011;63557;52.302;7.964;2022-12-18T10:22:32;36.05;;;22.23;;
27580;SDS011;63557;52.302;7.964;2022-12-18T10:27:36;35.03;;;21.27;;
27580;SDS011;63557;52.302;7.964;2022-12-18T10:32:36;36.33;;;23.40;;
27580;SDS011;63557;52.302;7.964;2022-12-18T10:37:37;36.23;;;23.33;;
27580;SDS011;63557;52.302;7.964;2022-12-18T10:43:13;35.15;;;22.77;;
27580;SDS011;63557;52.302;7.964;2022-12-18T10:48:18;38.47;;;25.35;;
27580;SDS011;63557;52.302;7.964;2022-12-18T10:53:20;42.83;;;28.17;;
27580;SDS011;63557;52.302;7.964;2022-12-18T10:58:26;43.80;;;25.95;;
27580;SDS011;63557;52.302;7.964;2022-12-18T11:08:30;37.80;;;24.70;;
27580;SDS011;63557;52.302;7.964;2022-12-18T11:13:30;49.97;;;27.57;;
27580;SDS011;63557;52.302;7.964;2022-12-18T11:18:32;45.70;;;27.85;;
27580;SDS011;63557;52.302;7.964;2022-12-18T11:23:34;44.95;;;26.55;;
27580;SDS011;63557;52.302;7.964;2022-12-18T11:28:49;42.47;;;26.88;;
27580;SDS011;63557;52.302;7.964;2022-12-18T11:33:54;53.30;;;26.42;;
27580;SDS011;63557;52.302;7.964;2022-12-18T11:38:56;42.80;;;25.92;;
27580;SDS011;63557;52.302;7.964;2022-12-18T11:43:59;47.00;;;24.95;;
27580;SDS011;63557;52.302;7.964;2022-12-18T11:54:01;43.20;;;24.05;;
27580;SDS011;63557;52.302;7.964;2022-12-18T12:04:24;43.00;;;22.73;;
27580;SDS011;63557;52.302;7.964;2022-12-18T12:14:46;40.78;;;20.98;;
27580;SDS011;63557;52.302;7.964;2022-12-18T12:19:58;39.38;;;21.60;;
27580;SDS011;63557;52.302;7.964;2022-12-18T12:25:06;42.22;;;22.38;;
27580;SDS011;63557;52.302;7.964;2022-12-18T12:35:51;41.13;;;22.48;;
27580;SDS011;63557;52.302;7.964;2022-12-18T12:40:32;45.10;;;22.88;;
27580;SDS011;63557;52.302;7.964;2022-12-18T12:45:35;39.95;;;22.70;;
27580;SDS011;63557;52.302;7.964;2022-12-18T12:50:36;39.35;;;21.25;;
27580;SDS011;63557;52.302;7.964;2022-12-18T12:55:37;36.10;;;18.55;;
27580;SDS011;63557;52.302;7.964;2022-12-18T13:00:39;35.95;;;18.90;;
27580;SDS011;63557;52.302;7.964;2022-12-18T13:10:41;31.57;;;17.53;;
27580;SDS011;63557;52.302;7.964;2022-12-18T13:15:43;29.17;;;16.50;;
27580;SDS011;63557;52.302;7.964;2022-12-18T13:20:50;24.40;;;14.13;;
27580;SDS011;63557;52.302;7.964;2022-12-18T13:31:10;27.92;;;15.48;;
27580;SDS011;63557;52.302;7.964;2022-12-18T13:36:25;29.60;;;15.23;;
27580;SDS011;63557;52.302;7.964;2022-12-18T13:41:26;30.75;;;15.52;;
27580;SDS011;63557;52.302;7.964;2022-12-18T13:46:28;23.55;;;13.90;;
27580;SDS011;63557;52.302;7.964;2022-12-18T13:51:30;25.80;;;14.02;;
27580;SDS011;63557;52.302;7.964;2022-12-18T13:56:32;25.45;;;14.20;;
27580;SDS011;63557;52.302;7.964;2022-12-18T14:01:33;31.20;;;15.75;;
27580;SDS011;63557;52.302;7.964;2022-12-18T14:06:34;28.65;;;15.43;;
27580;SDS011;63557;52.302;7.964;2022-12-18T14:11:34;24.75;;;14.55;;
27580;SDS011;63557;52.302;7.964;2022-12-18T14:16:35;28.50;;;14.75;;
27580;SDS011;63557;52.302;7.964;2022-12-18T14:21:35;26.15;;;15.27;;
27580;SDS011;63557;52.302;7.964;2022-12-18T14:26:37;30.05;;;16.15;;
27580;SDS011;63557;52.302;7.964;2022-12-18T14:31:37;31.15;;;15.32;;
27580;SDS011;63557;52.302;7.964;2022-12-18T14:36:38;28.50;;;13.85;;
27580;SDS011;63557;52.302;7.964;2022-12-18T14:41:39;29.90;;;15.10;;
27580;SDS011;63557;52.302;7.964;2022-12-18T14:46:41;26.45;;;13.85;;
27580;SDS011;63557;52.302;7.964;2022-12-18T14:51:42;25.75;;;14.70;;
27580;SDS011;63557;52.302;7.964;2022-12-18T15:12:19;24.13;;;13.05;;
27580;SDS011;63557;52.302;7.964;2022-12-18T15:17:22;27.52;;;13.93;;
27580;SDS011;63557;52.302;7.964;2022-12-18T15:32:27;24.02;;;14.20;;
27580;SDS011;63557;52.302;7.964;2022-12-18T15:37:27;25.35;;;12.93;;
27580;SDS011;63557;52.302;7.964;2022-12-18T15:42:28;28.83;;;14.93;;
27580;SDS011;63557;52.302;7.964;2022-12-18T15:47:47;26.60;;;14.02;;
27580;SDS011;63557;52.302;7.964;2022-12-18T15:52:48;26.80;;;14.57;;
27580;SDS011;63557;52.302;7.964;2022-12-18T15:57:49;25.33;;;14.32;;
27580;SDS011;63557;52.302;7.964;2022-12-18T16:02:50;31.15;;;14.82;;
27580;SDS011;63557;52.302;7.964;2022-12-18T16:07:50;25.77;;;14.83;;
27580;SDS011;63557;52.302;7.964;2022-12-18T16:12:50;27.40;;;13.67;;
27580;SDS011;63557;52.302;7.964;2022-12-18T16:17:51;26.40;;;13.18;;
27580;SDS011;63557;52.302;7.964;2022-12-18T16:22:52;25.65;;;13.73;;
27580;SDS011;63557;52.302;7.964;2022-12-18T16:27:53;26.08;;;13.43;;
27580;SDS011;63557;52.302;7.964;2022-12-18T16:32:55;26.25;;;13.27;;
27580;SDS011;63557;52.302;7.964;2022-12-18T16:37:55;20.02;;;12.07;;
27580;SDS011;63557;52.302;7.964;2022-12-18T16:42:55;22.60;;;12.60;;
27580;SDS011;63557;52.302;7.964;2022-12-18T16:47:56;25.08;;;13.32;;
27580;SDS011;63557;52.302;7.964;2022-12-18T16:52:56;24.90;;;14.13;;
27580;SDS011;63557;52.302;7.964;2022-12-18T16:57:56;22.93;;;13.27;;
27580;SDS011;63557;52.302;7.964;2022-12-18T17:02:57;22.50;;;12.70;;
27580;SDS011;63557;52.302;7.964;2022-12-18T17:07:57;23.10;;;13.47;;
27580;SDS011;63557;52.302;7.964;2022-12-18T17:12:57;24.75;;;14.07;;
27580;SDS011;63557;52.302;7.964;2022-12-18T17:17:59;21.95;;;13.60;;
27580;SDS011;63557;52.302;7.964;2022-12-18T17:22:59;28.23;;;15.80;;
27580;SDS011;63557;52.302;7.964;2022-12-18T17:27:59;29.23;;;14.53;;
27580;SDS011;63557;52.302;7.964;2022-12-18T17:33:00;30.17;;;15.23;;
27580;SDS011;63557;52.302;7.964;2022-12-18T17:38:00;29.35;;;16.17;;
27580;SDS011;63557;52.302;7.964;2022-12-18T17:43:00;29.38;;;16.75;;
27580;SDS011;63557;52.302;7.964;2022-12-18T17:48:01;26.45;;;15.52;;
27580;SDS011;63557;52.302;7.964;2022-12-18T17:53:02;35.08;;;18.77;;
27580;SDS011;63557;52.302;7.964;2022-12-18T17:58:03;30.53;;;16.57;;
27580;SDS011;63557;52.302;7.964;2022-12-18T18:03:03;27.85;;;15.65;;
27580;SDS011;63557;52.302;7.964;2022-12-18T18:08:04;27.23;;;16.93;;
27580;SDS011;63557;52.302;7.964;2022-12-18T18:13:16;26.00;;;13.25;;
27580;SDS011;63557;52.302;7.964;2022-12-18T18:18:36;24.75;;;13.60;;
27580;SDS011;63557;52.302;7.964;2022-12-18T18:23:37;24.63;;;13.80;;
27580;SDS011;63557;52.302;7.964;2022-12-18T18:28:37;23.70;;;13.95;;
27580;SDS011;63557;52.302;7.964;2022-12-18T18:33:37;24.67;;;13.27;;
27580;SDS011;63557;52.302;7.964;2022-12-18T18:38:38;24.63;;;13.20;;
27580;SDS011;63557;52.302;7.964;2022-12-18T18:43:38;25.08;;;12.77;;
27580;SDS011;63557;52.302;7.964;2022-12-18T18:48:39;22.58;;;14.13;;
27580;SDS011;63557;52.302;7.964;2022-12-18T18:53:43;27.30;;;12.25;;
27580;SDS011;63557;52.302;7.964;2022-12-18T18:58:43;29.67;;;14.33;;
27580;SDS011;63557;52.302;7.964;2022-12-18T19:03:44;25.88;;;14.70;;
27580;SDS011;63557;52.302;7.964;2022-12-18T19:08:45;32.00;;;15.13;;
27580;SDS011;63557;52.302;7.964;2022-12-18T19:13:45;29.45;;;15.63;;
27580;SDS011;63557;52.302;7.964;2022-12-18T19:18:46;27.80;;;15.15;;
27580;SDS011;63557;52.302;7.964;2022-12-18T19:23:47;30.55;;;16.05;;
27580;SDS011;63557;52.302;7.964;2022-12-18T19:28:47;30.38;;;16.48;;
27580;SDS011;63557;52.302;7.964;2022-12-18T19:33:48;30.90;;;16.90;;
27580;SDS011;63557;52.302;7.964;2022-12-18T19:38:48;30.48;;;15.93;;
27580;SDS011;63557;52.302;7.964;2022-12-18T19:43:50;29.60;;;17.15;;
27580;SDS011;63557;52.302;7.964;2022-12-18T19:48:50;38.45;;;18.17;;
27580;SDS011;63557;52.302;7.964;2022-12-18T19:53:51;38.25;;;18.83;;
27580;SDS011;63557;52.302;7.964;2022-12-18T19:58:52;36.65;;;19.35;;
27580;SDS011;63557;52.302;7.964;2022-12-18T20:03:53;38.05;;;20.20;;
27580;SDS011;63557;52.302;7.964;2022-12-18T20:08:54;36.83;;;19.33;;
27580;SDS011;63557;52.302;7.964;2022-12-18T20:13:55;39.53;;;20.13;;
27580;SDS011;63557;52.302;7.964;2022-12-18T20:18:55;43.50;;;21.55;;
27580;SDS011;63557;52.302;7.964;2022-12-18T20:23:56;38.90;;;20.25;;
27580;SDS011;63557;52.302;7.964;2022-12-18T20:28:58;44.42;;;21.70;;
27580;SDS011;63557;52.302;7.964;2022-12-18T20:33:58;49.25;;;22.63;;
27580;SDS011;63557;52.302;7.964;2022-12-18T20:38:59;46.42;;;22.58;;
27580;SDS011;63557;52.302;7.964;2022-12-18T20:43:59;47.60;;;22.77;;
27580;SDS011;63557;52.302;7.964;2022-12-18T20:48:59;43.37;;;22.83;;
27580;SDS011;63557;52.302;7.964;2022-12-18T20:54:00;54.40;;;23.67;;
27580;SDS011;63557;52.302;7.964;2022-12-18T20:59:00;43.38;;;22.55;;
27580;SDS011;63557;52.302;7.964;2022-12-18T21:04:01;52.92;;;25.95;;
27580;SDS011;63557;52.302;7.964;2022-12-18T21:09:01;50.77;;;25.27;;
27580;SDS011;63557;52.302;7.964;2022-12-18T21:14:02;53.20;;;23.43;;
27580;SDS011;63557;52.302;7.964;2022-12-18T21:19:03;60.58;;;27.63;;
27580;SDS011;63557;52.302;7.964;2022-12-18T21:24:03;53.47;;;25.27;;
27580;SDS011;63557;52.302;7.964;2022-12-18T21:29:04;50.45;;;25.25;;
27580;SDS011;63557;52.302;7.964;2022-12-18T21:34:05;49.88;;;25.05;;
27580;SDS011;63557;52.302;7.964;2022-12-18T21:39:06;51.17;;;25.20;;
27580;SDS011;63557;52.302;7.964;2022-12-18T21:44:07;54.78;;;27.35;;
27580;SDS011;63557;52.302;7.964;2022-12-18T21:49:08;51.20;;;24.58;;
27580;SDS011;63557;52.302;7.964;2022-12-18T21:54:09;52.05;;;25.65;;
27580;SDS011;63557;52.302;7.964;2022-12-18T21:59:11;52.47;;;25.80;;
27580;SDS011;63557;52.302;7.964;2022-12-18T22:04:11;54.15;;;27.27;;
27580;SDS011;63557;52.302;7.964;2022-12-18T22:09:15;51.45;;;25.50;;
27580;SDS011;63557;52.302;7.964;2022-12-18T22:14:16;56.33;;;26.57;;
27580;SDS011;63557;52.302;7.964;2022-12-18T22:19:17;53.53;;;26.10;;
27580;SDS011;63557;52.302;7.964;2022-12-18T22:24:21;52.83;;;26.15;;
27580;SDS011;63557;52.302;7.964;2022-12-18T22:29:22;49.10;;;23.33;;
27580;SDS011;63557;52.302;7.964;2022-12-18T22:34:41;46.53;;;21.23;;
27580;SDS011;63557;52.302;7.964;2022-12-18T22:39:41;46.97;;;22.40;;
27580;SDS011;63557;52.302;7.964;2022-12-18T22:44:42;44.30;;;18.55;;
27580;SDS011;63557;52.302;7.964;2022-12-18T22:49:42;46.00;;;21.27;;
27580;SDS011;63557;52.302;7.964;2022-12-18T22:54:43;47.73;;;21.97;;
27580;SDS011;63557;52.302;7.964;2022-12-18T22:59:43;49.45;;;23.70;;
27580;SDS011;63557;52.302;7.964;2022-12-18T23:04:44;50.07;;;22.63;;
27580;SDS011;63557;52.302;7.964;2022-12-18T23:09:44;37.80;;;19.60;;
27580;SDS011;63557;52.302;7.964;2022-12-18T23:14:44;47.50;;;22.55;;
27580;SDS011;63557;52.302;7.964;2022-12-18T23:19:46;52.55;;;25.35;;
27580;SDS011;63557;52.302;7.964;2022-12-18T23:24:46;52.00;;;25.27;;
27580;SDS011;63557;52.302;7.964;2022-12-18T23:29:46;50.90;;;24.03;;
27580;SDS011;63557;52.302;7.964;2022-12-18T23:34:47;53.77;;;23.37;;
27580;SDS011;63557;52.302;7.964;2022-12-18T23:39:47;56.53;;;26.83;;
27580;SDS011;63557;52.302;7.964;2022-12-18T23:44:47;57.07;;;26.03;;
27580;SDS011;63557;52.302;7.964;2022-12-18T23:49:48;53.77;;;26.57;;
27580;SDS011;63557;52.302;7.964;2022-12-18T23:54:48;54.97;;;24.63;;
27580;SDS011;63557;52.302;7.964;2022-12-18T23:59:48;42.80;;;19.90;;
